sensor_id;sensor_type;location;lat;lon;timestamp;P1;durP1;ratioP1;P2;durP2;ratioP2
51438;SDS011;38816;51.142;-0.974;2023-07-29T00:00:49;76.90;;;71.68;;
51438;SDS011;38816;51.142;-0.974;2023-07-29T00:03:14;85.10;;;79.20;;
51438;SDS011;38816;51.142;-0.974;2023-07-29T00:05:40;82.50;;;76.63;;
51438;SDS011;38816;51.142;-0.974;2023-07-29T00:08:06;84.65;;;78.55;;
51438;SDS011;38816;51.142;-0.974;2023-07-29T00:10:32;65.07;;;60.65;;
51438;SDS011;38816;51.142;-0.974;2023-07-29T00:13:00;68.55;;;63.72;;
51438;SDS011;38816;51.142;-0.974;2023-07-29T00:15:26;78.15;;;72.25;;
51438;SDS011;38816;51.142;-0.974;2023-07-29T00:17:51;80.80;;;75.25;;
51438;SDS011;38816;51.142;-0.974;2023-07-29T00:20:17;72.00;;;66.95;;
51438;SDS011;38816;51.142;-0.974;2023-07-29T00:22:42;65.78;;;61.28;;
51438;SDS011;38816;51.142;-0.974;2023-07-29T00:25:08;83.47;;;77.72;;
51438;SDS011;38816;51.142;-0.974;2023-07-29T00:27:34;64.53;;;60.03;;
51438;SDS011;38816;51.142;-0.974;2023-07-29T00:29:59;74.90;;;69.35;;
51438;SDS011;38816;51.142;-0.974;2023-07-29T00:32:25;80.95;;;75.22;;
51438;SDS011;38816;51.142;-0.974;2023-07-29T00:34:52;72.53;;;67.47;;
51438;SDS011;38816;51.142;-0.974;2023-07-29T00:37:17;70.13;;;65.43;;
51438;SDS011;38816;51.142;-0.974;2023-07-29T00:39:43;69.15;;;63.90;;
51438;SDS011;38816;51.142;-0.974;2023-07-29T00:42:08;60.63;;;56.15;;
51438;SDS011;38816;51.142;-0.974;2023-07-29T00:44:34;63.10;;;58.45;;
51438;SDS011;38816;51.142;-0.974;2023-07-29T00:47:00;67.00;;;62.10;;
51438;SDS011;38816;51.142;-0.974;2023-07-29T00:49:27;66.30;;;61.33;;
51438;SDS011;38816;51.142;-0.974;2023-07-29T00:51:53;66.15;;;61.30;;
51438;SDS011;38816;51.142;-0.974;2023-07-29T00:54:18;61.03;;;56.83;;
51438;SDS011;38816;51.142;-0.974;2023-07-29T00:56:44;55.80;;;51.88;;
51438;SDS011;38816;51.142;-0.974;2023-07-29T00:59:10;59.33;;;54.92;;
51438;SDS011;38816;51.142;-0.974;2023-07-29T01:01:35;62.47;;;58.05;;
51438;SDS011;38816;51.142;-0.974;2023-07-29T01:04:01;60.63;;;56.05;;
51438;SDS011;38816;51.142;-0.974;2023-07-29T01:06:33;62.40;;;57.97;;
51438;SDS011;38816;51.142;-0.974;2023-07-29T01:09:36;57.95;;;53.53;;
51438;SDS011;38816;51.142;-0.974;2023-07-29T01:15:19;55.65;;;51.20;;
51438;SDS011;38816;51.142;-0.974;2023-07-29T01:17:52;60.78;;;56.35;;
51438;SDS011;38816;51.142;-0.974;2023-07-29T01:20:20;60.33;;;55.88;;
51438;SDS011;38816;51.142;-0.974;2023-07-29T01:22:49;68.57;;;63.72;;
51438;SDS011;38816;51.142;-0.974;2023-07-29T01:25:14;66.07;;;61.20;;
51438;SDS011;38816;51.142;-0.974;2023-07-29T01:27:41;65.45;;;60.38;;
51438;SDS011;38816;51.142;-0.974;2023-07-29T01:30:08;64.40;;;59.70;;
51438;SDS011;38816;51.142;-0.974;2023-07-29T01:37:54;69.13;;;64.13;;
51438;SDS011;38816;51.142;-0.974;2023-07-29T01:40:22;65.28;;;60.95;;
51438;SDS011;38816;51.142;-0.974;2023-07-29T01:42:51;76.32;;;71.05;;
51438;SDS011;38816;51.142;-0.974;2023-07-29T01:45:17;72.68;;;67.50;;
51438;SDS011;38816;51.142;-0.974;2023-07-29T01:47:43;70.85;;;65.80;;
51438;SDS011;38816;51.142;-0.974;2023-07-29T01:50:08;69.82;;;64.78;;
51438;SDS011;38816;51.142;-0.974;2023-07-29T01:52:34;69.32;;;64.68;;
51438;SDS011;38816;51.142;-0.974;2023-07-29T01:55:00;73.65;;;68.53;;
51438;SDS011;38816;51.142;-0.974;2023-07-29T01:57:26;75.70;;;70.63;;
51438;SDS011;38816;51.142;-0.974;2023-07-29T01:59:51;70.15;;;65.07;;
51438;SDS011;38816;51.142;-0.974;2023-07-29T02:02:17;76.40;;;70.93;;
51438;SDS011;38816;51.142;-0.974;2023-07-29T02:04:42;70.72;;;65.25;;
51438;SDS011;38816;51.142;-0.974;2023-07-29T02:07:08;82.70;;;77.00;;
51438;SDS011;38816;51.142;-0.974;2023-07-29T02:09:33;77.45;;;71.82;;
51438;SDS011;38816;51.142;-0.974;2023-07-29T02:11:59;75.47;;;69.85;;
51438;SDS011;38816;51.142;-0.974;2023-07-29T02:14:24;76.43;;;70.80;;
51438;SDS011;38816;51.142;-0.974;2023-07-29T02:16:49;81.38;;;75.97;;
51438;SDS011;38816;51.142;-0.974;2023-07-29T02:19:15;71.07;;;66.05;;
51438;SDS011;38816;51.142;-0.974;2023-07-29T02:21:41;70.18;;;65.00;;
51438;SDS011;38816;51.142;-0.974;2023-07-29T02:24:06;82.05;;;76.00;;
51438;SDS011;38816;51.142;-0.974;2023-07-29T02:26:32;77.90;;;72.38;;
51438;SDS011;38816;51.142;-0.974;2023-07-29T02:28:57;79.38;;;73.88;;
51438;SDS011;38816;51.142;-0.974;2023-07-29T02:31:24;81.75;;;76.15;;
51438;SDS011;38816;51.142;-0.974;2023-07-29T02:33:50;76.40;;;71.03;;
51438;SDS011;38816;51.142;-0.974;2023-07-29T02:36:16;73.63;;;68.53;;
51438;SDS011;38816;51.142;-0.974;2023-07-29T02:38:42;76.20;;;70.60;;
51438;SDS011;38816;51.142;-0.974;2023-07-29T02:41:08;77.45;;;71.65;;
51438;SDS011;38816;51.142;-0.974;2023-07-29T02:43:35;80.75;;;74.82;;
51438;SDS011;38816;51.142;-0.974;2023-07-29T02:46:01;74.70;;;69.13;;
51438;SDS011;38816;51.142;-0.974;2023-07-29T02:48:27;82.70;;;77.05;;
51438;SDS011;38816;51.142;-0.974;2023-07-29T02:50:54;77.95;;;72.55;;
51438;SDS011;38816;51.142;-0.974;2023-07-29T02:53:20;68.60;;;63.90;;
51438;SDS011;38816;51.142;-0.974;2023-07-29T02:55:46;70.22;;;65.18;;
51438;SDS011;38816;51.142;-0.974;2023-07-29T02:58:12;76.10;;;70.63;;
51438;SDS011;38816;51.142;-0.974;2023-07-29T03:00:37;75.88;;;70.55;;
51438;SDS011;38816;51.142;-0.974;2023-07-29T03:03:03;74.78;;;69.53;;
51438;SDS011;38816;51.142;-0.974;2023-07-29T03:05:29;75.60;;;70.38;;
51438;SDS011;38816;51.142;-0.974;2023-07-29T03:07:55;74.43;;;69.38;;
51438;SDS011;38816;51.142;-0.974;2023-07-29T03:10:20;72.10;;;66.78;;
51438;SDS011;38816;51.142;-0.974;2023-07-29T03:12:46;74.70;;;69.38;;
51438;SDS011;38816;51.142;-0.974;2023-07-29T03:15:11;74.70;;;69.40;;
51438;SDS011;38816;51.142;-0.974;2023-07-29T03:17:37;73.38;;;68.10;;
51438;SDS011;38816;51.142;-0.974;2023-07-29T03:20:03;69.50;;;64.47;;
51438;SDS011;38816;51.142;-0.974;2023-07-29T03:22:28;72.50;;;67.00;;
51438;SDS011;38816;51.142;-0.974;2023-07-29T03:24:54;77.05;;;71.00;;
51438;SDS011;38816;51.142;-0.974;2023-07-29T03:27:19;74.97;;;69.32;;
51438;SDS011;38816;51.142;-0.974;2023-07-29T03:29:45;72.80;;;67.43;;
51438;SDS011;38816;51.142;-0.974;2023-07-29T03:32:11;73.00;;;67.38;;
51438;SDS011;38816;51.142;-0.974;2023-07-29T03:34:36;74.55;;;69.35;;
51438;SDS011;38816;51.142;-0.974;2023-07-29T03:37:02;71.05;;;65.93;;
51438;SDS011;38816;51.142;-0.974;2023-07-29T03:39:27;69.72;;;64.53;;
51438;SDS011;38816;51.142;-0.974;2023-07-29T03:41:53;70.50;;;65.40;;
51438;SDS011;38816;51.142;-0.974;2023-07-29T03:44:18;72.07;;;66.78;;
51438;SDS011;38816;51.142;-0.974;2023-07-29T03:46:44;71.43;;;66.22;;
51438;SDS011;38816;51.142;-0.974;2023-07-29T03:49:10;68.05;;;63.10;;
51438;SDS011;38816;51.142;-0.974;2023-07-29T03:51:35;71.18;;;66.28;;
51438;SDS011;38816;51.142;-0.974;2023-07-29T03:54:01;68.47;;;63.33;;
51438;SDS011;38816;51.142;-0.974;2023-07-29T03:56:26;62.53;;;58.10;;
51438;SDS011;38816;51.142;-0.974;2023-07-29T03:58:52;62.65;;;58.30;;
51438;SDS011;38816;51.142;-0.974;2023-07-29T04:01:18;67.88;;;62.72;;
51438;SDS011;38816;51.142;-0.974;2023-07-29T04:03:44;65.18;;;60.63;;
51438;SDS011;38816;51.142;-0.974;2023-07-29T04:06:11;63.92;;;59.30;;
51438;SDS011;38816;51.142;-0.974;2023-07-29T04:08:36;68.32;;;63.10;;
51438;SDS011;38816;51.142;-0.974;2023-07-29T04:11:02;64.07;;;59.58;;
51438;SDS011;38816;51.142;-0.974;2023-07-29T04:13:27;66.70;;;61.60;;
51438;SDS011;38816;51.142;-0.974;2023-07-29T04:15:53;67.43;;;62.63;;
51438;SDS011;38816;51.142;-0.974;2023-07-29T04:18:18;64.07;;;59.60;;
51438;SDS011;38816;51.142;-0.974;2023-07-29T04:20:44;64.32;;;59.85;;
51438;SDS011;38816;51.142;-0.974;2023-07-29T04:23:10;64.72;;;60.28;;
51438;SDS011;38816;51.142;-0.974;2023-07-29T04:25:35;71.13;;;66.10;;
51438;SDS011;38816;51.142;-0.974;2023-07-29T04:28:01;66.95;;;61.85;;
51438;SDS011;38816;51.142;-0.974;2023-07-29T04:30:28;65.63;;;60.70;;
51438;SDS011;38816;51.142;-0.974;2023-07-29T04:32:54;70.60;;;65.47;;
51438;SDS011;38816;51.142;-0.974;2023-07-29T04:35:19;59.05;;;55.05;;
51438;SDS011;38816;51.142;-0.974;2023-07-29T04:37:45;65.07;;;60.22;;
51438;SDS011;38816;51.142;-0.974;2023-07-29T04:40:13;62.30;;;58.05;;
51438;SDS011;38816;51.142;-0.974;2023-07-29T04:42:38;65.78;;;61.08;;
51438;SDS011;38816;51.142;-0.974;2023-07-29T04:45:04;64.32;;;59.65;;
51438;SDS011;38816;51.142;-0.974;2023-07-29T04:47:30;63.35;;;58.85;;
51438;SDS011;38816;51.142;-0.974;2023-07-29T04:49:55;61.10;;;56.70;;
51438;SDS011;38816;51.142;-0.974;2023-07-29T04:52:20;64.80;;;60.22;;
51438;SDS011;38816;51.142;-0.974;2023-07-29T04:54:46;61.45;;;57.10;;
51438;SDS011;38816;51.142;-0.974;2023-07-29T04:57:12;66.03;;;61.08;;
51438;SDS011;38816;51.142;-0.974;2023-07-29T04:59:37;60.75;;;56.50;;
51438;SDS011;38816;51.142;-0.974;2023-07-29T05:02:03;62.88;;;58.05;;
51438;SDS011;38816;51.142;-0.974;2023-07-29T05:04:29;61.70;;;57.13;;
51438;SDS011;38816;51.142;-0.974;2023-07-29T05:06:54;62.75;;;58.28;;
51438;SDS011;38816;51.142;-0.974;2023-07-29T05:09:19;63.13;;;58.53;;
51438;SDS011;38816;51.142;-0.974;2023-07-29T05:11:45;61.50;;;57.33;;
51438;SDS011;38816;51.142;-0.974;2023-07-29T05:14:12;66.57;;;61.83;;
51438;SDS011;38816;51.142;-0.974;2023-07-29T05:16:42;61.83;;;57.47;;
51438;SDS011;38816;51.142;-0.974;2023-07-29T05:19:07;63.75;;;58.97;;
51438;SDS011;38816;51.142;-0.974;2023-07-29T05:21:33;65.28;;;60.53;;
51438;SDS011;38816;51.142;-0.974;2023-07-29T05:23:58;63.50;;;59.25;;
51438;SDS011;38816;51.142;-0.974;2023-07-29T05:26:24;62.97;;;58.65;;
51438;SDS011;38816;51.142;-0.974;2023-07-29T05:28:49;69.03;;;64.10;;
51438;SDS011;38816;51.142;-0.974;2023-07-29T05:31:15;64.57;;;60.28;;
51438;SDS011;38816;51.142;-0.974;2023-07-29T05:33:40;67.40;;;62.80;;
51438;SDS011;38816;51.142;-0.974;2023-07-29T05:36:06;74.72;;;69.78;;
51438;SDS011;38816;51.142;-0.974;2023-07-29T05:38:31;74.30;;;69.18;;
51438;SDS011;38816;51.142;-0.974;2023-07-29T05:40:57;75.97;;;70.88;;
51438;SDS011;38816;51.142;-0.974;2023-07-29T05:43:23;83.40;;;77.97;;
51438;SDS011;38816;51.142;-0.974;2023-07-29T05:45:49;80.68;;;75.35;;
51438;SDS011;38816;51.142;-0.974;2023-07-29T05:48:15;88.50;;;82.53;;
51438;SDS011;38816;51.142;-0.974;2023-07-29T05:50:41;85.38;;;79.47;;
51438;SDS011;38816;51.142;-0.974;2023-07-29T05:53:07;95.70;;;89.40;;
51438;SDS011;38816;51.142;-0.974;2023-07-29T05:55:32;91.57;;;85.55;;
51438;SDS011;38816;51.142;-0.974;2023-07-29T05:57:58;100.82;;;94.10;;
51438;SDS011;38816;51.142;-0.974;2023-07-29T06:00:23;97.60;;;91.25;;
51438;SDS011;38816;51.142;-0.974;2023-07-29T06:02:49;94.55;;;88.15;;
51438;SDS011;38816;51.142;-0.974;2023-07-29T06:05:14;98.65;;;91.78;;
51438;SDS011;38816;51.142;-0.974;2023-07-29T06:07:40;102.57;;;95.88;;
51438;SDS011;38816;51.142;-0.974;2023-07-29T06:10:09;102.03;;;95.38;;
51438;SDS011;38816;51.142;-0.974;2023-07-29T06:12:37;98.90;;;92.28;;
51438;SDS011;38816;51.142;-0.974;2023-07-29T06:15:04;97.55;;;91.20;;
51438;SDS011;38816;51.142;-0.974;2023-07-29T06:17:30;93.18;;;87.05;;
51438;SDS011;38816;51.142;-0.974;2023-07-29T06:19:55;102.38;;;95.10;;
51438;SDS011;38816;51.142;-0.974;2023-07-29T06:22:21;98.90;;;91.90;;
51438;SDS011;38816;51.142;-0.974;2023-07-29T06:24:46;93.85;;;87.72;;
51438;SDS011;38816;51.142;-0.974;2023-07-29T06:27:12;95.72;;;89.28;;
51438;SDS011;38816;51.142;-0.974;2023-07-29T06:29:37;94.63;;;88.18;;
51438;SDS011;38816;51.142;-0.974;2023-07-29T06:32:03;92.20;;;85.70;;
51438;SDS011;38816;51.142;-0.974;2023-07-29T06:34:29;93.13;;;86.93;;
51438;SDS011;38816;51.142;-0.974;2023-07-29T06:36:54;99.18;;;92.18;;
51438;SDS011;38816;51.142;-0.974;2023-07-29T06:39:19;96.95;;;90.07;;
51438;SDS011;38816;51.142;-0.974;2023-07-29T06:41:45;95.85;;;89.35;;
51438;SDS011;38816;51.142;-0.974;2023-07-29T06:44:10;98.72;;;92.25;;
51438;SDS011;38816;51.142;-0.974;2023-07-29T06:46:36;99.68;;;93.20;;
51438;SDS011;38816;51.142;-0.974;2023-07-29T06:49:01;93.35;;;87.32;;
51438;SDS011;38816;51.142;-0.974;2023-07-29T06:51:27;97.05;;;90.80;;
51438;SDS011;38816;51.142;-0.974;2023-07-29T06:53:57;91.95;;;85.95;;
51438;SDS011;38816;51.142;-0.974;2023-07-29T06:56:22;92.97;;;87.00;;
51438;SDS011;38816;51.142;-0.974;2023-07-29T06:58:48;85.32;;;79.88;;
51438;SDS011;38816;51.142;-0.974;2023-07-29T07:01:13;71.68;;;66.97;;
51438;SDS011;38816;51.142;-0.974;2023-07-29T07:03:39;80.47;;;75.30;;
51438;SDS011;38816;51.142;-0.974;2023-07-29T07:06:04;79.82;;;74.72;;
51438;SDS011;38816;51.142;-0.974;2023-07-29T07:08:30;71.88;;;67.25;;
51438;SDS011;38816;51.142;-0.974;2023-07-29T07:10:56;82.90;;;77.53;;
51438;SDS011;38816;51.142;-0.974;2023-07-29T07:13:21;102.28;;;95.57;;
51438;SDS011;38816;51.142;-0.974;2023-07-29T07:15:47;85.60;;;80.03;;
51438;SDS011;38816;51.142;-0.974;2023-07-29T07:18:12;88.25;;;82.28;;
51438;SDS011;38816;51.142;-0.974;2023-07-29T07:20:38;94.75;;;88.43;;
51438;SDS011;38816;51.142;-0.974;2023-07-29T07:23:04;93.53;;;87.35;;
51438;SDS011;38816;51.142;-0.974;2023-07-29T07:25:30;87.38;;;81.63;;
51438;SDS011;38816;51.142;-0.974;2023-07-29T07:27:56;82.10;;;76.75;;
51438;SDS011;38816;51.142;-0.974;2023-07-29T07:30:22;103.95;;;97.22;;
51438;SDS011;38816;51.142;-0.974;2023-07-29T07:32:47;93.65;;;87.63;;
51438;SDS011;38816;51.142;-0.974;2023-07-29T07:35:13;96.95;;;90.70;;
51438;SDS011;38816;51.142;-0.974;2023-07-29T07:37:38;105.30;;;97.88;;
51438;SDS011;38816;51.142;-0.974;2023-07-29T07:40:04;94.40;;;88.00;;
51438;SDS011;38816;51.142;-0.974;2023-07-29T07:42:29;101.45;;;94.85;;
51438;SDS011;38816;51.142;-0.974;2023-07-29T07:44:55;103.35;;;96.63;;
51438;SDS011;38816;51.142;-0.974;2023-07-29T07:47:20;72.65;;;67.75;;
51438;SDS011;38816;51.142;-0.974;2023-07-29T07:49:46;103.40;;;96.55;;
51438;SDS011;38816;51.142;-0.974;2023-07-29T07:52:11;105.60;;;98.68;;
51438;SDS011;38816;51.142;-0.974;2023-07-29T07:54:37;97.97;;;91.63;;
51438;SDS011;38816;51.142;-0.974;2023-07-29T07:57:02;97.93;;;91.40;;
51438;SDS011;38816;51.142;-0.974;2023-07-29T07:59:28;100.32;;;93.75;;
51438;SDS011;38816;51.142;-0.974;2023-07-29T08:01:53;111.30;;;104.10;;
51438;SDS011;38816;51.142;-0.974;2023-07-29T08:04:18;106.47;;;99.72;;
51438;SDS011;38816;51.142;-0.974;2023-07-29T08:06:44;105.35;;;98.40;;
51438;SDS011;38816;51.142;-0.974;2023-07-29T08:09:09;101.50;;;94.75;;
51438;SDS011;38816;51.142;-0.974;2023-07-29T08:11:35;105.70;;;98.60;;
51438;SDS011;38816;51.142;-0.974;2023-07-29T08:14:00;101.93;;;95.30;;
51438;SDS011;38816;51.142;-0.974;2023-07-29T08:16:26;106.18;;;99.00;;
51438;SDS011;38816;51.142;-0.974;2023-07-29T08:18:51;96.20;;;89.82;;
51438;SDS011;38816;51.142;-0.974;2023-07-29T08:21:17;96.38;;;89.93;;
51438;SDS011;38816;51.142;-0.974;2023-07-29T08:23:42;105.60;;;98.63;;
51438;SDS011;38816;51.142;-0.974;2023-07-29T08:26:07;108.05;;;101.05;;
51438;SDS011;38816;51.142;-0.974;2023-07-29T08:28:34;107.65;;;100.55;;
51438;SDS011;38816;51.142;-0.974;2023-07-29T08:31:01;93.05;;;86.93;;
51438;SDS011;38816;51.142;-0.974;2023-07-29T08:33:27;108.47;;;101.07;;
51438;SDS011;38816;51.142;-0.974;2023-07-29T08:35:53;103.30;;;96.32;;
51438;SDS011;38816;51.142;-0.974;2023-07-29T08:38:19;102.50;;;95.68;;
51438;SDS011;38816;51.142;-0.974;2023-07-29T08:40:45;107.80;;;100.70;;
51438;SDS011;38816;51.142;-0.974;2023-07-29T08:43:19;98.05;;;91.53;;
51438;SDS011;38816;51.142;-0.974;2023-07-29T08:45:48;111.43;;;104.13;;
51438;SDS011;38816;51.142;-0.974;2023-07-29T08:48:16;110.97;;;103.65;;
51438;SDS011;38816;51.142;-0.974;2023-07-29T08:50:44;99.10;;;92.43;;
51438;SDS011;38816;51.142;-0.974;2023-07-29T08:53:10;83.97;;;78.18;;
51438;SDS011;38816;51.142;-0.974;2023-07-29T08:55:36;112.28;;;104.80;;
51438;SDS011;38816;51.142;-0.974;2023-07-29T08:58:02;90.70;;;84.78;;
51438;SDS011;38816;51.142;-0.974;2023-07-29T09:00:28;96.85;;;90.45;;
51438;SDS011;38816;51.142;-0.974;2023-07-29T09:02:54;101.75;;;94.97;;
51438;SDS011;38816;51.142;-0.974;2023-07-29T09:05:20;89.05;;;83.13;;
51438;SDS011;38816;51.142;-0.974;2023-07-29T09:07:46;81.60;;;76.00;;
51438;SDS011;38816;51.142;-0.974;2023-07-29T09:10:13;111.40;;;103.85;;
51438;SDS011;38816;51.142;-0.974;2023-07-29T09:12:39;105.40;;;98.18;;
51438;SDS011;38816;51.142;-0.974;2023-07-29T09:15:05;108.95;;;101.45;;
51438;SDS011;38816;51.142;-0.974;2023-07-29T09:17:32;110.38;;;102.70;;
51438;SDS011;38816;51.142;-0.974;2023-07-29T09:19:58;91.18;;;84.95;;
51438;SDS011;38816;51.142;-0.974;2023-07-29T09:22:24;103.13;;;96.28;;
51438;SDS011;38816;51.142;-0.974;2023-07-29T09:24:52;101.78;;;95.07;;
51438;SDS011;38816;51.142;-0.974;2023-07-29T09:27:27;114.32;;;105.93;;
51438;SDS011;38816;51.142;-0.974;2023-07-29T09:29:56;96.28;;;89.72;;
51438;SDS011;38816;51.142;-0.974;2023-07-29T09:32:23;100.70;;;93.93;;
51438;SDS011;38816;51.142;-0.974;2023-07-29T09:34:49;102.22;;;95.30;;
51438;SDS011;38816;51.142;-0.974;2023-07-29T09:37:16;88.32;;;82.47;;
51438;SDS011;38816;51.142;-0.974;2023-07-29T09:39:48;103.72;;;96.45;;
51438;SDS011;38816;51.142;-0.974;2023-07-29T09:42:22;87.70;;;81.40;;
51438;SDS011;38816;51.142;-0.974;2023-07-29T09:44:49;105.55;;;98.53;;
51438;SDS011;38816;51.142;-0.974;2023-07-29T09:47:22;90.68;;;84.50;;
51438;SDS011;38816;51.142;-0.974;2023-07-29T09:49:52;105.18;;;98.18;;
51438;SDS011;38816;51.142;-0.974;2023-07-29T09:52:19;100.35;;;93.68;;
51438;SDS011;38816;51.142;-0.974;2023-07-29T09:54:46;96.15;;;89.50;;
51438;SDS011;38816;51.142;-0.974;2023-07-29T09:57:16;101.18;;;93.95;;
51438;SDS011;38816;51.142;-0.974;2023-07-29T09:59:53;99.78;;;93.05;;
51438;SDS011;38816;51.142;-0.974;2023-07-29T10:02:20;77.63;;;72.35;;
51438;SDS011;38816;51.142;-0.974;2023-07-29T10:04:46;116.00;;;108.43;;
51438;SDS011;38816;51.142;-0.974;2023-07-29T10:07:11;108.80;;;101.30;;
51438;SDS011;38816;51.142;-0.974;2023-07-29T10:09:38;106.63;;;99.55;;
51438;SDS011;38816;51.142;-0.974;2023-07-29T10:12:05;89.28;;;83.00;;
51438;SDS011;38816;51.142;-0.974;2023-07-29T10:14:31;91.85;;;85.50;;
51438;SDS011;38816;51.142;-0.974;2023-07-29T10:16:57;106.20;;;98.93;;
51438;SDS011;38816;51.142;-0.974;2023-07-29T10:19:24;96.40;;;89.97;;
51438;SDS011;38816;51.142;-0.974;2023-07-29T10:21:51;102.28;;;95.43;;
51438;SDS011;38816;51.142;-0.974;2023-07-29T10:24:22;98.03;;;91.50;;
51438;SDS011;38816;51.142;-0.974;2023-07-29T10:26:55;156.10;;;145.68;;
51438;SDS011;38816;51.142;-0.974;2023-07-29T10:29:23;112.90;;;105.32;;
51438;SDS011;38816;51.142;-0.974;2023-07-29T10:31:49;111.88;;;104.35;;
51438;SDS011;38816;51.142;-0.974;2023-07-29T10:34:20;135.40;;;126.32;;
51438;SDS011;38816;51.142;-0.974;2023-07-29T10:36:47;124.15;;;115.72;;
51438;SDS011;38816;51.142;-0.974;2023-07-29T10:39:14;110.70;;;103.13;;
51438;SDS011;38816;51.142;-0.974;2023-07-29T10:44:45;116.13;;;108.28;;
51438;SDS011;38816;51.142;-0.974;2023-07-29T10:49:40;159.02;;;148.35;;
51438;SDS011;38816;51.142;-0.974;2023-07-29T10:52:06;136.05;;;126.60;;
51438;SDS011;38816;51.142;-0.974;2023-07-29T10:54:45;140.25;;;130.90;;
51438;SDS011;38816;51.142;-0.974;2023-07-29T10:57:15;188.18;;;175.88;;
51438;SDS011;38816;51.142;-0.974;2023-07-29T10:59:55;132.27;;;123.53;;
51438;SDS011;38816;51.142;-0.974;2023-07-29T11:02:21;181.00;;;169.00;;
51438;SDS011;38816;51.142;-0.974;2023-07-29T11:04:54;153.35;;;142.88;;
51438;SDS011;38816;51.142;-0.974;2023-07-29T11:07:20;133.38;;;124.65;;
51438;SDS011;38816;51.142;-0.974;2023-07-29T11:15:22;232.05;;;216.55;;
51438;SDS011;38816;51.142;-0.974;2023-07-29T11:20:24;163.23;;;152.33;;
51438;SDS011;38816;51.142;-0.974;2023-07-29T11:22:51;216.88;;;202.88;;
51438;SDS011;38816;51.142;-0.974;2023-07-29T11:25:17;197.77;;;184.88;;
51438;SDS011;38816;51.142;-0.974;2023-07-29T11:27:43;191.98;;;179.55;;
51438;SDS011;38816;51.142;-0.974;2023-07-29T11:30:10;227.95;;;213.07;;
51438;SDS011;38816;51.142;-0.974;2023-07-29T11:32:37;205.48;;;191.80;;
51438;SDS011;38816;51.142;-0.974;2023-07-29T11:35:08;223.13;;;208.68;;
51438;SDS011;38816;51.142;-0.974;2023-07-29T11:37:39;217.20;;;203.07;;
51438;SDS011;38816;51.142;-0.974;2023-07-29T11:40:06;231.40;;;216.60;;
51438;SDS011;38816;51.142;-0.974;2023-07-29T11:42:33;218.80;;;204.50;;
51438;SDS011;38816;51.142;-0.974;2023-07-29T11:44:59;193.85;;;181.25;;
51438;SDS011;38816;51.142;-0.974;2023-07-29T11:47:26;196.98;;;184.13;;
51438;SDS011;38816;51.142;-0.974;2023-07-29T11:49:52;199.57;;;186.35;;
51438;SDS011;38816;51.142;-0.974;2023-07-29T11:52:17;210.10;;;196.60;;
51438;SDS011;38816;51.142;-0.974;2023-07-29T11:54:45;214.77;;;200.90;;
51438;SDS011;38816;51.142;-0.974;2023-07-29T11:57:13;203.35;;;190.02;;
51438;SDS011;38816;51.142;-0.974;2023-07-29T11:59:40;216.50;;;202.45;;
51438;SDS011;38816;51.142;-0.974;2023-07-29T12:02:11;233.32;;;218.55;;
51438;SDS011;38816;51.142;-0.974;2023-07-29T12:04:38;217.10;;;203.18;;
51438;SDS011;38816;51.142;-0.974;2023-07-29T12:07:06;216.15;;;202.27;;
51438;SDS011;38816;51.142;-0.974;2023-07-29T12:09:32;203.65;;;190.57;;
51438;SDS011;38816;51.142;-0.974;2023-07-29T12:11:59;232.57;;;217.63;;
51438;SDS011;38816;51.142;-0.974;2023-07-29T12:14:25;241.75;;;225.98;;
51438;SDS011;38816;51.142;-0.974;2023-07-29T12:16:52;222.20;;;207.82;;
51438;SDS011;38816;51.142;-0.974;2023-07-29T12:19:18;239.35;;;224.13;;
51438;SDS011;38816;51.142;-0.974;2023-07-29T12:21:47;250.73;;;234.50;;
51438;SDS011;38816;51.142;-0.974;2023-07-29T12:24:12;276.27;;;258.42;;
51438;SDS011;38816;51.142;-0.974;2023-07-29T12:26:42;287.48;;;268.67;;
51438;SDS011;38816;51.142;-0.974;2023-07-29T12:29:25;285.58;;;267.25;;
51438;SDS011;38816;51.142;-0.974;2023-07-29T12:32:01;297.05;;;277.85;;
51438;SDS011;38816;51.142;-0.974;2023-07-29T12:34:28;290.45;;;271.52;;
51438;SDS011;38816;51.142;-0.974;2023-07-29T12:36:55;242.80;;;226.88;;
51438;SDS011;38816;51.142;-0.974;2023-07-29T12:39:23;268.10;;;250.77;;
51438;SDS011;38816;51.142;-0.974;2023-07-29T12:41:51;296.63;;;277.38;;
51438;SDS011;38816;51.142;-0.974;2023-07-29T12:44:18;302.20;;;282.42;;
51438;SDS011;38816;51.142;-0.974;2023-07-29T12:46:44;312.35;;;292.05;;
51438;SDS011;38816;51.142;-0.974;2023-07-29T12:49:10;306.77;;;286.92;;
51438;SDS011;38816;51.142;-0.974;2023-07-29T12:51:35;314.67;;;294.38;;
51438;SDS011;38816;51.142;-0.974;2023-07-29T12:54:02;295.40;;;276.10;;
51438;SDS011;38816;51.142;-0.974;2023-07-29T12:56:29;315.33;;;294.75;;
51438;SDS011;38816;51.142;-0.974;2023-07-29T12:58:56;311.20;;;290.70;;
51438;SDS011;38816;51.142;-0.974;2023-07-29T13:01:22;287.38;;;268.90;;
51438;SDS011;38816;51.142;-0.974;2023-07-29T13:03:48;312.60;;;292.27;;
51438;SDS011;38816;51.142;-0.974;2023-07-29T13:06:14;305.05;;;285.23;;
51438;SDS011;38816;51.142;-0.974;2023-07-29T13:08:40;283.08;;;264.70;;
51438;SDS011;38816;51.142;-0.974;2023-07-29T13:11:06;307.27;;;287.35;;
51438;SDS011;38816;51.142;-0.974;2023-07-29T13:13:31;327.90;;;306.52;;
51438;SDS011;38816;51.142;-0.974;2023-07-29T13:15:57;303.88;;;284.23;;
51438;SDS011;38816;51.142;-0.974;2023-07-29T13:18:23;299.50;;;280.13;;
51438;SDS011;38816;51.142;-0.974;2023-07-29T13:20:48;306.48;;;286.48;;
51438;SDS011;38816;51.142;-0.974;2023-07-29T13:23:14;302.42;;;282.73;;
51438;SDS011;38816;51.142;-0.974;2023-07-29T13:25:40;264.10;;;247.23;;
51438;SDS011;38816;51.142;-0.974;2023-07-29T13:28:06;301.63;;;282.08;;
51438;SDS011;38816;51.142;-0.974;2023-07-29T13:30:32;314.90;;;294.38;;
51438;SDS011;38816;51.142;-0.974;2023-07-29T13:32:58;321.42;;;300.58;;
51438;SDS011;38816;51.142;-0.974;2023-07-29T13:35:23;335.35;;;313.15;;
51438;SDS011;38816;51.142;-0.974;2023-07-29T13:37:49;327.35;;;306.00;;
51438;SDS011;38816;51.142;-0.974;2023-07-29T13:40:14;332.27;;;310.33;;
51438;SDS011;38816;51.142;-0.974;2023-07-29T13:42:40;345.67;;;323.08;;
51438;SDS011;38816;51.142;-0.974;2023-07-29T13:45:06;341.15;;;318.65;;
51438;SDS011;38816;51.142;-0.974;2023-07-29T13:47:31;347.38;;;324.60;;
51438;SDS011;38816;51.142;-0.974;2023-07-29T13:49:57;350.38;;;327.05;;
51438;SDS011;38816;51.142;-0.974;2023-07-29T13:52:22;356.52;;;332.92;;
51438;SDS011;38816;51.142;-0.974;2023-07-29T13:54:48;356.45;;;332.75;;
51438;SDS011;38816;51.142;-0.974;2023-07-29T13:57:13;352.08;;;328.77;;
51438;SDS011;38816;51.142;-0.974;2023-07-29T13:59:38;359.65;;;335.73;;
51438;SDS011;38816;51.142;-0.974;2023-07-29T14:02:07;344.92;;;321.88;;
51438;SDS011;38816;51.142;-0.974;2023-07-29T14:04:33;353.15;;;329.83;;
51438;SDS011;38816;51.142;-0.974;2023-07-29T14:06:59;346.60;;;323.70;;
51438;SDS011;38816;51.142;-0.974;2023-07-29T14:09:25;353.08;;;329.70;;
51438;SDS011;38816;51.142;-0.974;2023-07-29T14:11:51;348.90;;;325.75;;
51438;SDS011;38816;51.142;-0.974;2023-07-29T14:14:16;351.98;;;328.73;;
51438;SDS011;38816;51.142;-0.974;2023-07-29T14:16:42;353.85;;;330.48;;
51438;SDS011;38816;51.142;-0.974;2023-07-29T14:19:07;349.08;;;326.05;;